createdAt,value
2022-09-21T00:02:02.507Z,62.69
2022-09-21T00:05:08.155Z,62.91
2022-09-21T00:08:16.153Z,63.01
2022-09-21T00:11:22.077Z,63.36
2022-09-21T00:14:27.868Z,63.52
2022-09-21T00:17:34.215Z,63.34
2022-09-21T00:20:40.731Z,62.61
2022-09-21T00:23:46.181Z,62.47
2022-09-21T00:26:52.696Z,62.54
2022-09-21T00:29:58.499Z,62.39
2022-09-21T00:33:04.170Z,62.59
2022-09-21T00:36:09.671Z,62.82
2022-09-21T00:39:17.218Z,62.77
2022-09-21T00:42:27.216Z,63.13
2022-09-21T00:45:34.061Z,63.43
2022-09-21T00:48:40.771Z,63.77
2022-09-21T00:51:46.035Z,63.91
2022-09-21T00:55:07.524Z,63.95
2022-09-21T00:58:19.576Z,63.53
2022-09-21T01:01:26.288Z,63.58
2022-09-21T01:04:33.721Z,63.72
2022-09-21T01:07:42.144Z,63.52
2022-09-21T01:11:21.540Z,63.05
2022-09-21T01:14:53.894Z,63.15
2022-09-21T01:18:37.431Z,63.12
2022-09-21T01:21:48.927Z,63.23
2022-09-21T01:25:32.322Z,62.81
2022-09-21T01:29:04.815Z,62.75
2022-09-21T01:32:22.776Z,62.92
2022-09-21T01:35:40.385Z,63.65
2022-09-21T01:38:56.799Z,63.90
2022-09-21T01:42:04.634Z,63.93
2022-09-21T01:45:13.365Z,64.29
2022-09-21T01:48:19.802Z,64.47
2022-09-21T01:51:26.472Z,64.75
2022-09-21T01:54:40.899Z,64.90
2022-09-21T01:58:01.266Z,65.12
2022-09-21T02:01:09.977Z,64.98
2022-09-21T02:04:20.179Z,64.87
2022-09-21T02:07:26.070Z,64.96
2022-09-21T02:10:49.363Z,64.94
2022-09-21T02:13:59.554Z,65.54
2022-09-21T02:17:34.775Z,65.77
2022-09-21T02:20:48.015Z,65.81
2022-09-21T02:23:55.922Z,65.93
2022-09-21T02:27:03.167Z,66.23
2022-09-21T02:30:11.713Z,66.05
2022-09-21T02:33:26.023Z,66.41
2022-09-21T02:36:42.547Z,66.71
2022-09-21T02:40:04.184Z,66.90
2022-09-21T02:43:19.294Z,66.94
2022-09-21T02:46:44.078Z,66.97
2022-09-21T02:49:58.499Z,66.34
2022-09-21T02:53:04.108Z,66.35
2022-09-21T02:56:14.056Z,66.78
2022-09-21T02:59:20.845Z,66.51
2022-09-21T03:02:26.763Z,66.52
2022-09-21T03:05:33.195Z,66.75
2022-09-21T03:08:39.498Z,67.25
2022-09-21T03:11:47.938Z,67.65
2022-09-21T03:14:54.721Z,67.47
2022-09-21T03:18:00.585Z,67.26
2022-09-21T03:21:00.595Z,67.24
2022-09-21T03:24:05.590Z,67.56
2022-09-21T03:27:10.677Z,67.73
2022-09-21T03:30:17.083Z,67.78
2022-09-21T03:33:23.766Z,67.86
2022-09-21T03:36:29.855Z,68.03
2022-09-21T03:39:35.842Z,68.15
2022-09-21T03:42:42.250Z,68.32
2022-09-21T03:45:51.461Z,68.66
2022-09-21T03:48:56.717Z,68.73
2022-09-21T03:51:56.324Z,68.71
2022-09-21T03:55:03.074Z,68.62
2022-09-21T03:58:08.903Z,68.15
2022-09-21T04:01:18.685Z,67.92
2022-09-21T04:04:24.396Z,67.42
2022-09-21T04:07:30.673Z,67.27
2022-09-21T04:10:38.428Z,66.94
2022-09-21T04:13:44.161Z,66.89
2022-09-21T04:16:50.377Z,67.07
2022-09-21T04:19:56.691Z,66.99
2022-09-21T04:23:02.486Z,66.83
2022-09-21T04:26:09.537Z,66.95
2022-09-21T04:29:15.401Z,66.67
2022-09-21T04:32:21.265Z,66.55
2022-09-21T04:35:20.468Z,67.04
2022-09-21T04:38:25.606Z,66.87
2022-09-21T04:41:31.060Z,66.58
2022-09-21T04:44:37.516Z,66.71
2022-09-21T04:47:46.076Z,66.89
2022-09-21T04:50:53.874Z,66.53
2022-09-21T04:53:59.209Z,66.20
2022-09-21T04:57:04.975Z,65.73
2022-09-21T05:00:11.761Z,65.23
2022-09-21T05:03:17.461Z,65.04
2022-09-21T05:06:22.832Z,64.97
2022-09-21T05:09:45.669Z,65.19
2022-09-21T05:12:50.768Z,64.76
2022-09-21T05:15:56.501Z,64.85
2022-09-21T05:19:05.805Z,64.66
2022-09-21T05:22:11.412Z,64.37
2022-09-21T05:25:18.169Z,63.93
2022-09-21T05:28:24.641Z,63.50
2022-09-21T05:31:38.209Z,63.22
2022-09-21T05:34:54.284Z,62.96
2022-09-21T05:38:08.474Z,62.52
2022-09-21T05:41:14.244Z,62.65
2022-09-21T05:44:19.519Z,62.00
2022-09-21T05:47:56.611Z,61.88
2022-09-21T05:51:18.652Z,61.71
2022-09-21T05:54:49.624Z,61.70
2022-09-21T05:58:16.124Z,61.45
2022-09-21T06:01:35.407Z,60.93
2022-09-21T06:04:40.261Z,60.54
2022-09-21T06:07:46.286Z,59.41
2022-09-21T06:10:59.865Z,59.08
2022-09-21T06:14:07.537Z,60.11
2022-09-21T06:17:18.041Z,59.60
2022-09-21T06:20:26.585Z,59.19
2022-09-21T06:23:36.940Z,58.34
2022-09-21T06:26:44.422Z,58.27
2022-09-21T06:29:50.947Z,56.62
2022-09-21T06:32:56.902Z,57.01
2022-09-21T06:36:11.088Z,57.18
2022-09-21T06:39:19.769Z,56.54
2022-09-21T06:42:25.732Z,56.89
2022-09-21T06:45:32.067Z,55.89
2022-09-21T06:48:37.879Z,55.08
2022-09-21T06:51:43.919Z,55.04
2022-09-21T06:54:51.957Z,55.04
2022-09-21T06:57:58.357Z,55.02
2022-09-21T07:01:04.373Z,53.57
2022-09-21T07:04:16.073Z,54.24
2022-09-21T07:07:21.359Z,53.80
2022-09-21T07:10:30.051Z,52.84
2022-09-21T07:13:37.534Z,52.24
2022-09-21T07:16:44.648Z,52.17
2022-09-21T07:19:49.969Z,51.57
2022-09-21T07:22:55.900Z,50.66
2022-09-21T07:26:03.062Z,49.79
2022-09-21T07:29:10.981Z,50.19
2022-09-21T07:32:16.847Z,50.68
2022-09-21T07:35:21.685Z,49.14
2022-09-21T07:38:28.199Z,48.40
2022-09-21T07:41:38.875Z,48.79
2022-09-21T07:44:46.841Z,48.98
2022-09-21T07:47:52.808Z,48.48
2022-09-21T07:50:59.149Z,47.91
2022-09-21T07:54:10.299Z,47.42
2022-09-21T07:57:33.677Z,47.85
2022-09-21T08:00:41.335Z,47.04
2022-09-21T08:03:43.053Z,47.31
2022-09-21T08:06:35.359Z,47.29
2022-09-21T08:09:39.965Z,47.30
2022-09-21T08:12:46.152Z,46.83
2022-09-21T08:15:51.581Z,45.79
2022-09-21T08:18:57.505Z,44.71
2022-09-21T08:22:06.223Z,45.68
2022-09-21T08:25:11.694Z,45.43
2022-09-21T08:28:16.326Z,45.72
2022-09-21T08:31:25.302Z,45.71
2022-09-21T08:34:31.396Z,45.86
2022-09-21T08:37:38.924Z,46.29
2022-09-21T08:40:45.687Z,46.69
2022-09-21T08:44:09.071Z,46.37
2022-09-21T08:47:28.071Z,46.08
2022-09-21T08:50:46.944Z,46.04
2022-09-21T08:53:59.792Z,45.75
2022-09-21T08:57:06.502Z,46.09
2022-09-21T09:00:12.431Z,45.73
2022-09-21T09:03:41.833Z,45.21
2022-09-21T09:07:23.685Z,44.83
2022-09-21T09:11:02.154Z,44.53
2022-09-21T09:14:30.722Z,44.49
2022-09-21T09:18:01.222Z,44.12
2022-09-21T09:21:07.887Z,44.39
2022-09-21T09:24:22.283Z,44.84
2022-09-21T09:27:53.227Z,44.92
2022-09-21T09:30:59.241Z,44.29
2022-09-21T09:34:38.975Z,43.95
2022-09-21T09:37:48.106Z,43.22
2022-09-21T09:41:09.524Z,42.84
2022-09-21T09:44:28.027Z,42.33
2022-09-21T09:48:13.207Z,42.20
2022-09-21T09:51:18.141Z,41.52
2022-09-21T09:54:30.345Z,39.54
2022-09-21T09:57:42.980Z,40.00
2022-09-21T10:00:47.706Z,39.81
2022-09-21T10:03:55.169Z,39.05
2022-09-21T10:07:00.909Z,39.46
2022-09-21T10:10:07.743Z,39.71
2022-09-21T10:13:27.393Z,39.62
2022-09-21T10:16:38.911Z,40.16
2022-09-21T10:19:45.025Z,40.38
2022-09-21T10:22:51.639Z,40.50
2022-09-21T10:25:57.130Z,40.12
2022-09-21T10:29:15.868Z,39.79
2022-09-21T10:32:32.793Z,39.67
2022-09-21T10:35:39.938Z,39.18
2022-09-21T10:38:46.388Z,39.49
2022-09-21T10:41:52.381Z,39.58
2022-09-21T10:45:10.130Z,39.46
2022-09-21T10:48:24.472Z,39.41
2022-09-21T10:51:46.004Z,39.68
2022-09-21T10:54:51.857Z,39.50
2022-09-21T10:57:57.406Z,39.23
2022-09-21T11:01:04.300Z,39.25
2022-09-21T11:04:19.524Z,38.91
2022-09-21T11:07:32.385Z,38.65
2022-09-21T11:10:48.826Z,39.36
2022-09-21T11:14:08.633Z,39.28
2022-09-21T11:17:20.895Z,39.48
2022-09-21T11:20:52.623Z,38.25
2022-09-21T11:24:39.876Z,38.33
2022-09-21T11:27:56.006Z,38.50
2022-09-21T11:31:16.024Z,38.21
2022-09-21T11:35:09.460Z,37.72
2022-09-21T11:38:50.158Z,36.93
2022-09-21T11:42:38.106Z,36.39
2022-09-21T11:46:06.778Z,37.09
2022-09-21T11:49:41.603Z,37.60
2022-09-21T11:53:04.171Z,36.93
2022-09-21T11:56:40.476Z,36.68
2022-09-21T12:00:01.302Z,37.25
2022-09-21T12:03:34.157Z,36.91
2022-09-21T12:07:02.505Z,37.86
2022-09-21T12:10:48.439Z,37.57
2022-09-21T12:14:22.239Z,38.37
2022-09-21T12:18:03.767Z,38.45
2022-09-21T12:21:43.561Z,37.61
2022-09-21T12:24:57.318Z,37.83
2022-09-21T12:28:18.464Z,38.57
2022-09-21T12:31:55.808Z,37.96
2022-09-21T12:35:08.558Z,37.50
2022-09-21T12:38:39.763Z,37.33
2022-09-21T12:42:00.452Z,37.48
2022-09-21T12:45:12.991Z,37.58
2022-09-21T12:48:34.899Z,37.97
2022-09-21T12:51:52.199Z,38.59
2022-09-21T12:55:35.240Z,39.06
2022-09-21T12:59:01.658Z,38.14
2022-09-21T13:02:47.318Z,38.30
2022-09-21T13:06:01.103Z,37.81
2022-09-21T13:09:03.348Z,37.90
2022-09-21T13:12:15.287Z,37.94
2022-09-21T13:15:29.392Z,37.91
2022-09-21T13:18:53.423Z,38.01
2022-09-21T13:21:59.969Z,38.32
2022-09-21T13:25:19.745Z,38.40
2022-09-21T13:28:30.048Z,38.82
2022-09-21T13:31:40.908Z,38.93
2022-09-21T13:34:49.870Z,38.48
2022-09-21T13:37:55.378Z,38.71
2022-09-21T13:41:14.165Z,38.80
2022-09-21T13:44:23.461Z,38.40
2022-09-21T13:47:28.856Z,38.52
2022-09-21T13:50:56.214Z,38.04
2022-09-21T13:54:01.552Z,38.23
2022-09-21T13:57:36.682Z,38.18
2022-09-21T14:01:09.936Z,38.66
2022-09-21T14:04:18.646Z,38.45
2022-09-21T14:07:23.313Z,38.00
2022-09-21T14:10:36.033Z,38.04
2022-09-21T14:13:51.219Z,38.35
2022-09-21T14:17:05.345Z,38.62
2022-09-21T14:20:14.712Z,38.91
2022-09-21T14:23:37.873Z,38.82
2022-09-21T14:27:02.201Z,38.87
2022-09-21T14:30:20.214Z,38.87
2022-09-21T14:33:46.226Z,39.53
2022-09-21T14:36:58.036Z,39.44
2022-09-21T14:40:03.846Z,38.91
2022-09-21T14:43:10.879Z,38.97
2022-09-21T14:46:47.671Z,39.51
2022-09-21T14:50:19.221Z,39.79
2022-09-21T14:53:34.772Z,40.08
2022-09-21T14:57:15.347Z,40.45
2022-09-21T15:00:38.786Z,40.66
2022-09-21T15:04:06.393Z,40.80
2022-09-21T15:07:56.510Z,41.08
2022-09-21T15:11:43.456Z,41.17
2022-09-21T15:14:49.852Z,40.89
2022-09-21T15:18:11.305Z,40.68
2022-09-21T15:21:17.699Z,40.70
2022-09-21T15:24:46.670Z,40.84
2022-09-21T15:27:53.383Z,40.85
2022-09-21T15:31:00.577Z,41.19
2022-09-21T15:34:06.670Z,41.42
2022-09-21T15:37:25.541Z,41.94
2022-09-21T15:44:03.995Z,43.00
2022-09-21T15:47:11.303Z,43.48
2022-09-21T15:50:17.224Z,43.92
2022-09-21T15:53:35.856Z,44.55
2022-09-21T15:56:47.484Z,45.06
2022-09-21T15:59:54.743Z,45.60
2022-09-21T16:03:12.374Z,45.85
2022-09-21T16:06:37.400Z,46.07
2022-09-21T16:09:54.051Z,46.20
2022-09-21T16:12:59.540Z,46.71
2022-09-21T16:16:20.272Z,47.71
2022-09-21T16:19:25.525Z,48.21
2022-09-21T16:22:34.468Z,48.85
2022-09-21T16:25:44.389Z,49.10
2022-09-21T16:28:54.736Z,49.13
2022-09-21T16:32:01.591Z,49.47
2022-09-21T16:35:08.102Z,49.96
2022-09-21T16:38:18.552Z,50.57
2022-09-21T16:41:24.681Z,50.77
2022-09-21T16:44:39.743Z,50.92
2022-09-21T16:47:46.590Z,51.35
2022-09-21T16:50:53.313Z,51.61
2022-09-21T16:53:58.912Z,51.81
2022-09-21T16:57:04.824Z,51.81
2022-09-21T17:00:10.649Z,51.91
2022-09-21T17:03:18.005Z,52.27
2022-09-21T17:06:32.479Z,52.20
2022-09-21T17:09:44.612Z,52.59
2022-09-21T17:12:51.364Z,52.83
2022-09-21T17:16:00.938Z,52.94
2022-09-21T17:19:07.101Z,52.70
2022-09-21T17:22:14.241Z,52.49
2022-09-21T17:25:20.661Z,52.36
2022-09-21T17:28:32.704Z,52.61
2022-09-21T17:31:38.381Z,52.75
2022-09-21T17:34:44.910Z,52.82
2022-09-21T17:37:51.159Z,52.96
2022-09-21T17:40:57.052Z,52.63
2022-09-21T17:44:30.403Z,52.96
2022-09-21T17:47:41.914Z,53.53
2022-09-21T17:50:47.765Z,54.39
2022-09-21T17:53:53.606Z,54.52
2022-09-21T17:57:12.307Z,54.66
2022-09-21T18:00:26.615Z,54.83
2022-09-21T18:03:42.691Z,55.48
2022-09-21T18:06:42.437Z,55.66
2022-09-21T18:09:51.204Z,55.92
2022-09-21T18:13:13.804Z,56.45
2022-09-21T18:16:34.080Z,56.57
2022-09-21T18:20:02.074Z,56.58
2022-09-21T18:23:28.274Z,56.66
2022-09-21T18:26:33.913Z,56.96
2022-09-21T18:29:46.882Z,57.18
2022-09-21T18:33:18.080Z,57.41
2022-09-21T18:36:34.957Z,57.43
2022-09-21T18:40:04.162Z,57.48
2022-09-21T18:43:20.668Z,57.50
2022-09-21T18:46:38.125Z,57.85
2022-09-21T18:50:13.889Z,57.85
2022-09-21T18:53:30.177Z,58.70
2022-09-21T18:56:50.175Z,58.79
2022-09-21T18:59:55.462Z,58.73
2022-09-21T19:03:18.071Z,58.80
2022-09-21T19:06:31.991Z,58.84
2022-09-21T19:10:13.791Z,58.98
2022-09-21T19:13:59.914Z,58.90
2022-09-21T19:17:11.421Z,59.07
2022-09-21T19:20:47.503Z,59.19
2022-09-21T19:24:21.020Z,59.21
2022-09-21T19:27:34.926Z,59.62
2022-09-21T19:30:39.567Z,59.61
2022-09-21T19:33:51.420Z,59.72
2022-09-21T19:36:55.781Z,59.52
2022-09-21T19:40:03.035Z,59.49
2022-09-21T19:43:37.234Z,59.57
2022-09-21T19:47:03.103Z,59.58
2022-09-21T19:50:09.192Z,59.24
2022-09-21T19:53:31.982Z,59.45
2022-09-21T19:56:55.389Z,59.62
2022-09-21T19:59:58.962Z,59.58
2022-09-21T20:03:28.069Z,59.99
2022-09-21T20:06:46.018Z,60.11
2022-09-21T20:09:56.347Z,60.39
2022-09-21T20:13:13.840Z,60.90
2022-09-21T20:16:38.297Z,60.86
2022-09-21T20:20:02.919Z,60.51
2022-09-21T20:23:08.730Z,60.46
2022-09-21T20:26:21.478Z,60.64
2022-09-21T20:29:28.775Z,60.79
2022-09-21T20:32:35.388Z,60.84
2022-09-21T20:35:43.719Z,60.93
2022-09-21T20:38:49.173Z,61.17
2022-09-21T20:41:56.359Z,61.63
2022-09-21T20:45:01.246Z,61.73
2022-09-21T20:48:09.984Z,61.76
2022-09-21T20:51:16.859Z,61.64
2022-09-21T20:54:23.715Z,61.62
2022-09-21T20:57:29.466Z,61.62
2022-09-21T21:00:35.134Z,61.57
2022-09-21T21:03:41.128Z,61.69
2022-09-21T21:06:47.952Z,61.62
2022-09-21T21:09:54.859Z,61.38
2022-09-21T21:13:00.493Z,61.46
2022-09-21T21:16:12.502Z,61.49
2022-09-21T21:19:19.507Z,62.10
2022-09-21T21:22:26.739Z,62.44
2022-09-21T21:25:32.691Z,62.63
2022-09-21T21:28:38.222Z,62.56
2022-09-21T21:31:43.370Z,62.56
2022-09-21T21:34:48.156Z,62.61
2022-09-21T21:37:53.639Z,62.52
2022-09-21T21:40:59.878Z,62.60
2022-09-21T21:44:06.660Z,63.00
2022-09-21T21:47:21.246Z,63.37
2022-09-21T21:50:06.584Z,63.26
2022-09-21T21:53:12.908Z,63.30
2022-09-21T21:56:29.711Z,63.63
2022-09-21T21:59:28.060Z,63.75
2022-09-21T22:02:21.721Z,63.63
2022-09-21T22:05:26.994Z,63.52
2022-09-21T22:08:35.332Z,63.26
2022-09-21T22:11:42.814Z,63.61
2022-09-21T22:14:48.666Z,63.83
2022-09-21T22:17:55.069Z,63.79
2022-09-21T22:21:00.443Z,63.89
2022-09-21T22:24:15.017Z,63.45
2022-09-21T22:27:20.081Z,63.51
2022-09-21T22:30:26.840Z,63.64
2022-09-21T22:33:33.249Z,63.48
2022-09-21T22:36:43.496Z,63.53
2022-09-21T22:39:50.057Z,63.75
2022-09-21T22:42:49.080Z,64.23
2022-09-21T22:45:35.774Z,64.23
2022-09-21T22:48:27.613Z,64.03
2022-09-21T22:51:35.825Z,63.87
2022-09-21T22:54:35.014Z,64.03
2022-09-21T22:57:21.813Z,63.94
2022-09-21T23:00:16.354Z,63.92
2022-09-21T23:03:09.989Z,63.91
2022-09-21T23:06:14.601Z,64.06
2022-09-21T23:09:23.910Z,64.69
2022-09-21T23:12:28.873Z,65.10
2022-09-21T23:15:33.888Z,65.14
2022-09-21T23:18:40.000Z,65.20
2022-09-21T23:21:45.760Z,64.98
2022-09-21T23:24:51.317Z,64.59
2022-09-21T23:27:57.532Z,64.35
2022-09-21T23:31:03.011Z,64.07
2022-09-21T23:34:10.207Z,63.99
2022-09-21T23:37:15.588Z,64.17
2022-09-21T23:40:21.149Z,64.51
2022-09-21T23:43:27.095Z,65.25
2022-09-21T23:46:37.900Z,65.59
2022-09-21T23:49:43.609Z,65.87
2022-09-21T23:52:48.880Z,66.64
2022-09-21T23:55:53.834Z,66.81
2022-09-21T23:58:59.315Z,65.79
